createdAt,value
2023-03-01T00:02:09.395Z,7.60
2023-03-01T00:04:42.160Z,8.35
2023-03-01T00:07:16.213Z,8.68
2023-03-01T00:09:49.192Z,8.13
2023-03-01T00:14:54.625Z,8.07
2023-03-01T00:17:27.314Z,8.30
2023-03-01T00:20:00.248Z,8.10
2023-03-01T00:25:07.210Z,8.23
2023-03-01T00:27:39.853Z,8.23
2023-03-01T00:30:13.674Z,7.68
2023-03-01T00:32:46.366Z,8.57
2023-03-01T00:35:19.263Z,9.23
2023-03-01T00:40:34.370Z,8.55
2023-03-01T00:43:07.078Z,7.85
2023-03-01T00:45:39.849Z,8.10
2023-03-01T00:48:12.919Z,7.78
2023-03-01T00:50:45.680Z,8.93
2023-03-01T00:53:19.746Z,8.55
2023-03-01T00:55:52.752Z,8.63
2023-03-01T00:58:25.692Z,7.97
2023-03-01T01:03:30.841Z,9.40
2023-03-01T01:06:10.146Z,8.57
2023-03-01T01:08:44.186Z,8.70
2023-03-01T01:11:17.819Z,8.25
2023-03-01T01:13:51.250Z,8.88
2023-03-01T01:16:26.131Z,8.50
2023-03-01T01:18:59.500Z,8.15
2023-03-01T01:21:33.121Z,8.88
2023-03-01T01:24:08.392Z,8.70
2023-03-01T01:26:41.063Z,8.50
2023-03-01T01:31:46.676Z,8.82
2023-03-01T01:34:21.297Z,8.77
2023-03-01T01:36:55.410Z,9.25
2023-03-01T01:39:29.857Z,9.20
2023-03-01T01:42:03.061Z,9.95
2023-03-01T01:44:36.276Z,9.13
2023-03-01T01:47:16.435Z,9.90
2023-03-01T01:49:52.899Z,9.48
2023-03-01T01:52:29.095Z,10.77
2023-03-01T01:55:08.260Z,10.10
2023-03-01T01:57:45.254Z,9.20
2023-03-01T02:00:20.763Z,11.38
2023-03-01T02:02:58.542Z,8.98
2023-03-01T02:05:39.192Z,10.73
2023-03-01T02:08:14.693Z,8.70
2023-03-01T02:10:51.327Z,11.00
2023-03-01T02:13:24.610Z,11.60
2023-03-01T02:15:57.353Z,10.10
2023-03-01T02:18:30.338Z,11.50
2023-03-01T02:21:19.534Z,9.77
2023-03-01T02:23:52.300Z,10.93
2023-03-01T02:26:35.980Z,10.05
2023-03-01T02:29:10.607Z,10.05
2023-03-01T02:31:42.546Z,10.75
2023-03-01T02:34:18.890Z,10.10
2023-03-01T02:36:54.536Z,10.27
2023-03-01T02:39:30.980Z,11.30
2023-03-01T02:42:07.324Z,10.77
2023-03-01T02:44:41.341Z,10.98
2023-03-01T02:47:13.995Z,11.57
2023-03-01T02:49:47.564Z,10.32
2023-03-01T02:52:41.171Z,10.65
2023-03-01T02:55:18.593Z,11.95
2023-03-01T02:57:51.615Z,11.68
2023-03-01T03:00:30.715Z,11.80
2023-03-01T03:03:03.913Z,11.90
2023-03-01T03:05:36.720Z,11.68
2023-03-01T03:08:09.575Z,10.98
2023-03-01T03:10:44.053Z,12.98
2023-03-01T03:13:17.768Z,12.50
2023-03-01T03:15:52.417Z,12.25
2023-03-01T03:18:26.817Z,12.48
2023-03-01T03:21:00.154Z,12.77
2023-03-01T03:23:32.904Z,13.18
2023-03-01T03:26:06.457Z,13.73
2023-03-01T03:28:40.825Z,12.00
2023-03-01T03:31:14.864Z,11.70
2023-03-01T03:33:47.561Z,12.10
2023-03-01T03:36:23.488Z,12.32
2023-03-01T03:38:56.144Z,12.13
2023-03-01T03:41:28.890Z,12.30
2023-03-01T03:44:01.598Z,11.23
2023-03-01T03:46:36.587Z,13.35
2023-03-01T03:49:09.307Z,13.57
2023-03-01T03:51:42.270Z,13.10
2023-03-01T03:54:14.930Z,13.18
2023-03-01T03:56:47.680Z,13.45
2023-03-01T03:59:20.370Z,12.43
2023-03-01T04:01:54.448Z,12.25
2023-03-01T04:04:27.128Z,12.55
2023-03-01T04:06:59.960Z,12.15
2023-03-01T04:12:05.552Z,12.40
2023-03-01T04:14:38.584Z,12.65
2023-03-01T04:17:12.549Z,12.20
2023-03-01T04:19:47.298Z,11.35
2023-03-01T04:22:20.375Z,12.98
2023-03-01T04:24:52.986Z,11.80
2023-03-01T04:27:25.735Z,11.65
2023-03-01T04:29:59.186Z,11.75
2023-03-01T04:32:33.349Z,12.48
2023-03-01T04:35:06.597Z,12.68
2023-03-01T04:37:39.514Z,12.00
2023-03-01T04:42:51.290Z,12.55
2023-03-01T04:45:24.305Z,13.35
2023-03-01T04:47:59.288Z,13.23
2023-03-01T04:50:32.130Z,12.73
2023-03-01T04:55:37.434Z,12.93
2023-03-01T04:58:10.612Z,13.45
2023-03-01T05:00:43.349Z,13.20
2023-03-01T05:03:19.101Z,12.45
2023-03-01T05:05:53.648Z,13.77
2023-03-01T05:08:26.439Z,13.00
2023-03-01T05:10:59.097Z,13.93
2023-03-01T05:13:31.808Z,13.50
2023-03-01T05:16:06.191Z,13.35
2023-03-01T05:18:41.147Z,14.05
2023-03-01T05:21:17.350Z,14.55
2023-03-01T05:23:50.804Z,13.23
2023-03-01T05:26:28.924Z,14.73
2023-03-01T05:29:01.956Z,13.95
2023-03-01T05:34:08.633Z,13.50
2023-03-01T05:36:41.400Z,14.10
2023-03-01T05:39:14.130Z,13.20
2023-03-01T05:41:46.855Z,14.88
2023-03-01T05:44:19.540Z,14.45
2023-03-01T05:46:52.347Z,14.75
2023-03-01T05:49:26.923Z,13.43
2023-03-01T05:51:59.674Z,15.52
2023-03-01T05:54:32.959Z,14.60
2023-03-01T05:57:05.616Z,17.15
2023-03-01T05:59:38.594Z,17.20
2023-03-01T06:04:45.358Z,13.10
2023-03-01T06:07:18.088Z,16.27
2023-03-01T06:09:51.054Z,16.58
2023-03-01T06:12:23.685Z,17.55
2023-03-01T06:14:56.336Z,15.75
2023-03-01T06:17:32.737Z,15.52
2023-03-01T06:20:09.773Z,15.55
2023-03-01T06:22:42.845Z,15.90
2023-03-01T06:25:18.747Z,15.15
2023-03-01T06:27:53.211Z,16.30
2023-03-01T06:30:27.775Z,15.90
2023-03-01T06:33:02.337Z,15.70
2023-03-01T06:35:36.648Z,15.05
2023-03-01T06:38:09.653Z,16.15
2023-03-01T06:40:43.382Z,15.30
2023-03-01T06:43:16.208Z,16.52
2023-03-01T06:48:21.728Z,11.02
2023-03-01T06:50:56.192Z,16.05
2023-03-01T06:53:29.287Z,15.90
2023-03-01T06:58:34.649Z,15.18
2023-03-01T07:01:08.384Z,15.13
2023-03-01T07:03:41.098Z,15.88
2023-03-01T07:06:15.748Z,15.68
2023-03-01T07:08:48.442Z,14.70
2023-03-01T07:11:21.465Z,15.55
2023-03-01T07:13:54.242Z,14.70
2023-03-01T07:16:26.996Z,15.18
2023-03-01T07:21:35.072Z,16.45
2023-03-01T07:24:09.457Z,16.40
2023-03-01T07:26:42.353Z,14.18
2023-03-01T07:29:15.057Z,15.70
2023-03-01T07:31:48.219Z,16.73
2023-03-01T07:34:20.992Z,15.23
2023-03-01T07:36:54.991Z,15.15
2023-03-01T07:39:27.742Z,15.93
2023-03-01T07:42:01.388Z,15.85
2023-03-01T07:44:34.503Z,15.32
2023-03-01T07:47:07.328Z,15.43
2023-03-01T07:52:14.246Z,14.77
2023-03-01T07:54:46.916Z,15.38
2023-03-01T07:57:19.822Z,14.00
2023-03-01T07:59:52.584Z,16.23
2023-03-01T08:02:25.421Z,15.68
2023-03-01T08:04:58.352Z,15.70
2023-03-01T08:07:32.381Z,15.23
2023-03-01T08:10:05.855Z,15.23
2023-03-01T08:12:38.668Z,16.08
2023-03-01T08:17:44.555Z,14.43
2023-03-01T08:22:54.138Z,15.85
2023-03-01T08:25:26.871Z,14.93
2023-03-01T08:30:32.661Z,14.35
2023-03-01T08:35:38.002Z,13.98
2023-03-01T08:38:12.314Z,14.15
2023-03-01T08:40:45.072Z,14.38
2023-03-01T08:43:18.622Z,15.77
2023-03-01T08:45:51.285Z,14.65
2023-03-01T08:48:24.215Z,14.10
2023-03-01T08:50:57.190Z,14.60
2023-03-01T08:53:31.394Z,15.18
2023-03-01T08:56:04.465Z,14.32
2023-03-01T08:58:37.618Z,15.35
2023-03-01T09:01:11.667Z,16.00
2023-03-01T09:03:45.235Z,16.75
2023-03-01T09:06:17.997Z,15.55
2023-03-01T09:08:53.338Z,16.13
2023-03-01T09:11:26.425Z,15.18
2023-03-01T09:13:59.759Z,15.88
2023-03-01T09:16:37.167Z,15.38
2023-03-01T09:19:10.143Z,15.63
2023-03-01T09:24:27.428Z,13.90
2023-03-01T09:27:00.268Z,14.35
2023-03-01T09:29:33.047Z,14.38
2023-03-01T09:32:06.172Z,14.23
2023-03-01T09:34:59.234Z,13.68
2023-03-01T09:37:32.501Z,14.07
2023-03-01T09:40:08.826Z,13.73
2023-03-01T09:42:50.585Z,13.10
2023-03-01T09:45:35.048Z,13.57
2023-03-01T09:48:18.825Z,14.30
2023-03-01T09:50:53.255Z,15.10
2023-03-01T09:53:33.649Z,14.95
2023-03-01T09:56:19.972Z,13.38
2023-03-01T09:58:58.280Z,14.20
2023-03-01T10:01:36.187Z,12.98
2023-03-01T10:04:28.487Z,12.70
2023-03-01T10:07:15.254Z,12.98
2023-03-01T10:09:49.394Z,12.63
2023-03-01T10:12:27.445Z,11.43
2023-03-01T10:15:04.737Z,11.10
2023-03-01T10:17:41.533Z,11.45
2023-03-01T10:20:21.655Z,12.13
2023-03-01T10:22:56.434Z,11.88
2023-03-01T10:25:47.374Z,11.70
2023-03-01T10:28:27.875Z,11.20
2023-03-01T10:31:04.516Z,11.55
2023-03-01T10:33:40.754Z,10.70
2023-03-01T10:36:13.429Z,12.55
2023-03-01T10:38:53.301Z,10.60
2023-03-01T10:41:27.861Z,11.20
2023-03-01T10:44:02.044Z,10.18
2023-03-01T10:46:37.101Z,12.07
2023-03-01T10:49:16.506Z,11.32
2023-03-01T10:51:51.993Z,11.40
2023-03-01T10:54:29.843Z,10.90
2023-03-01T10:57:06.953Z,10.88
2023-03-01T10:59:41.152Z,10.98
2023-03-01T11:02:25.726Z,11.27
2023-03-01T11:05:01.064Z,11.50
2023-03-01T11:07:48.888Z,12.38
2023-03-01T11:10:25.070Z,12.05
2023-03-01T11:13:08.961Z,12.45
2023-03-01T11:15:43.953Z,11.30
2023-03-01T11:18:25.098Z,11.82
2023-03-01T11:21:06.052Z,11.43
2023-03-01T11:23:41.634Z,10.88
2023-03-01T11:26:17.225Z,11.30
2023-03-01T11:28:53.891Z,10.98
2023-03-01T11:31:28.993Z,10.48
2023-03-01T11:34:10.042Z,11.05
2023-03-01T11:36:48.811Z,11.95
2023-03-01T11:39:30.926Z,10.25
2023-03-01T11:42:18.385Z,11.07
2023-03-01T11:44:56.387Z,11.38
2023-03-01T11:47:43.876Z,11.88
2023-03-01T11:50:28.334Z,11.27
2023-03-01T11:53:14.062Z,10.75
2023-03-01T11:56:04.626Z,10.30
2023-03-01T11:58:54.141Z,10.52
2023-03-01T12:01:42.696Z,10.90
2023-03-01T12:04:49.722Z,10.75
2023-03-01T12:07:29.692Z,11.82
2023-03-01T12:10:23.969Z,11.85
2023-03-01T12:13:07.968Z,10.93
2023-03-01T12:16:05.882Z,10.90
2023-03-01T12:19:00.945Z,11.43
2023-03-01T12:21:51.828Z,12.80
2023-03-01T12:25:03.486Z,13.45
2023-03-01T12:27:53.239Z,12.50
2023-03-01T12:30:39.898Z,13.98
2023-03-01T12:33:24.338Z,13.93
2023-03-01T12:36:13.463Z,13.10
2023-03-01T12:38:52.475Z,14.60
2023-03-01T12:41:44.669Z,14.18
2023-03-01T12:44:37.532Z,16.13
2023-03-01T12:47:24.908Z,14.93
2023-03-01T12:50:02.285Z,15.80
2023-03-01T12:52:41.165Z,14.57
2023-03-01T12:55:31.095Z,15.55
2023-03-01T12:58:15.509Z,15.68
2023-03-01T13:01:05.266Z,14.13
2023-03-01T13:03:56.954Z,15.38
2023-03-01T13:06:43.274Z,15.80
2023-03-01T13:09:26.944Z,15.70
2023-03-01T13:12:02.909Z,15.20
2023-03-01T13:14:47.796Z,14.77
2023-03-01T13:17:35.543Z,14.68
2023-03-01T13:20:15.821Z,17.67
2023-03-01T13:22:54.576Z,15.50
2023-03-01T13:25:34.676Z,15.65
2023-03-01T13:28:43.023Z,16.73
2023-03-01T13:31:51.699Z,15.80
2023-03-01T13:34:45.707Z,17.00
2023-03-01T13:37:24.356Z,15.48
2023-03-01T13:39:59.973Z,15.48
2023-03-01T13:42:56.141Z,15.68
2023-03-01T13:45:40.292Z,16.02
2023-03-01T13:48:19.900Z,14.30
2023-03-01T13:50:55.025Z,13.65
2023-03-01T13:53:31.834Z,14.38
2023-03-01T13:56:10.573Z,15.48
2023-03-01T13:58:50.941Z,14.82
2023-03-01T14:01:28.354Z,14.10
2023-03-01T14:04:02.724Z,14.80
2023-03-01T14:06:36.679Z,15.57
2023-03-01T14:09:18.629Z,14.52
2023-03-01T14:12:18.378Z,13.40
2023-03-01T14:14:57.328Z,12.40
2023-03-01T14:17:48.760Z,11.45
2023-03-01T14:20:23.466Z,10.68
2023-03-01T14:22:59.420Z,10.95
2023-03-01T14:25:34.752Z,11.30
2023-03-01T14:28:19.936Z,10.70
2023-03-01T14:30:54.595Z,10.20
2023-03-01T14:33:31.309Z,8.85
2023-03-01T14:36:06.991Z,10.15
2023-03-01T14:38:41.633Z,8.90
2023-03-01T14:41:17.147Z,8.55
2023-03-01T14:43:59.209Z,8.85
2023-03-01T14:46:35.737Z,8.57
2023-03-01T14:49:14.899Z,8.63
2023-03-01T14:51:54.061Z,8.77
2023-03-01T14:54:29.634Z,8.38
2023-03-01T14:57:03.220Z,8.25
2023-03-01T14:59:36.474Z,8.07
2023-03-01T15:02:18.094Z,8.23
2023-03-01T15:04:55.276Z,7.82
2023-03-01T15:07:31.529Z,7.68
2023-03-01T15:10:06.259Z,7.72
2023-03-01T15:12:42.461Z,8.00
2023-03-01T15:15:23.623Z,8.18
2023-03-01T15:17:58.845Z,7.57
2023-03-01T15:20:37.069Z,8.13
2023-03-01T15:23:21.474Z,7.68
2023-03-01T15:25:58.320Z,8.88
2023-03-01T15:28:34.168Z,8.38
2023-03-01T15:31:20.273Z,9.30
2023-03-01T15:33:53.981Z,7.30
2023-03-01T15:36:38.934Z,8.02
2023-03-01T15:39:38.334Z,9.48
2023-03-01T15:42:35.303Z,8.60
2023-03-01T15:45:12.627Z,9.15
2023-03-01T15:47:51.206Z,9.05
2023-03-01T15:50:26.553Z,9.70
2023-03-01T15:53:02.925Z,9.13
2023-03-01T15:55:35.665Z,9.60
2023-03-01T15:58:15.456Z,9.75
2023-03-01T16:01:00.762Z,9.65
2023-03-01T16:03:34.390Z,9.27
2023-03-01T16:08:41.992Z,8.77
2023-03-01T16:11:18.311Z,8.88
2023-03-01T16:13:51.117Z,8.55
2023-03-01T16:16:24.029Z,8.38
2023-03-01T16:18:57.029Z,9.05
2023-03-01T16:24:04.786Z,9.05
2023-03-01T16:26:38.795Z,9.30
2023-03-01T16:29:11.698Z,8.68
2023-03-01T16:31:44.528Z,8.55
2023-03-01T16:34:17.740Z,8.18
2023-03-01T16:36:50.453Z,10.75
2023-03-01T16:39:24.621Z,9.32
2023-03-01T16:41:57.388Z,10.38
2023-03-01T16:44:30.210Z,9.23
2023-03-01T16:47:02.925Z,9.02
2023-03-01T16:49:35.743Z,9.75
2023-03-01T16:52:09.520Z,10.30
2023-03-01T16:54:43.660Z,10.05
2023-03-01T16:57:17.256Z,10.40
2023-03-01T16:59:54.221Z,9.35
2023-03-01T17:02:27.255Z,8.45
2023-03-01T17:05:00.154Z,9.30
2023-03-01T17:10:12.751Z,9.23
2023-03-01T17:12:45.407Z,8.93
2023-03-01T17:15:18.289Z,9.35
2023-03-01T17:20:25.513Z,9.20
2023-03-01T17:22:58.705Z,14.40
2023-03-01T17:25:33.441Z,14.48
2023-03-01T17:28:06.348Z,19.75
2023-03-01T17:30:39.099Z,19.08
2023-03-01T17:33:12.371Z,16.13
2023-03-01T17:35:48.563Z,19.58
2023-03-01T17:38:21.352Z,18.67
2023-03-01T17:40:55.537Z,18.00
2023-03-01T17:43:28.969Z,22.50
2023-03-01T17:46:02.562Z,18.05
2023-03-01T17:48:35.378Z,18.77
2023-03-01T17:51:09.870Z,19.23
2023-03-01T17:53:42.800Z,21.38
2023-03-01T17:58:50.328Z,17.08
2023-03-01T18:01:23.567Z,17.65
2023-03-01T18:03:56.329Z,20.15
2023-03-01T18:06:30.491Z,19.08
2023-03-01T18:09:03.752Z,27.13
2023-03-01T18:11:38.105Z,23.80
2023-03-01T18:14:10.912Z,19.20
2023-03-01T18:16:43.725Z,19.15
2023-03-01T18:19:16.468Z,18.95
2023-03-01T18:21:49.325Z,19.25
2023-03-01T18:24:22.078Z,15.13
2023-03-01T18:26:56.367Z,16.80
2023-03-01T18:29:29.322Z,14.32
2023-03-01T18:34:35.048Z,13.80
2023-03-01T18:37:09.816Z,14.70
2023-03-01T18:39:43.038Z,12.27
2023-03-01T18:42:17.195Z,12.52
2023-03-01T18:44:50.460Z,12.50
2023-03-01T18:47:23.240Z,11.40
2023-03-01T18:49:55.981Z,11.98
2023-03-01T18:52:29.134Z,10.38
2023-03-01T18:55:01.871Z,11.77
2023-03-01T18:57:36.177Z,10.43
2023-03-01T19:00:11.602Z,9.40
2023-03-01T19:02:44.409Z,9.95
2023-03-01T19:05:17.638Z,9.57
2023-03-01T19:07:52.298Z,9.70
2023-03-01T19:10:25.920Z,8.50
2023-03-01T19:13:00.120Z,10.18
2023-03-01T19:15:32.872Z,9.52
2023-03-01T19:18:06.027Z,9.95
2023-03-01T19:20:50.590Z,10.07
2023-03-01T19:23:23.506Z,10.77
2023-03-01T19:26:00.263Z,9.20
2023-03-01T19:28:34.517Z,11.07
2023-03-01T19:31:09.319Z,9.43
2023-03-01T19:33:43.149Z,9.70
2023-03-01T19:36:15.898Z,10.38
2023-03-01T19:38:49.515Z,9.07
2023-03-01T19:41:22.671Z,8.98
2023-03-01T19:43:57.422Z,9.15
2023-03-01T19:46:30.638Z,9.43
2023-03-01T19:49:04.577Z,8.82
2023-03-01T19:51:39.328Z,10.52
2023-03-01T19:54:14.913Z,9.43
2023-03-01T19:56:48.018Z,9.00
2023-03-01T19:59:24.577Z,9.02
2023-03-01T20:01:58.777Z,8.85
2023-03-01T20:04:31.875Z,9.15
2023-03-01T20:07:04.996Z,8.27
2023-03-01T20:09:38.067Z,8.18
2023-03-01T20:12:10.780Z,9.48
2023-03-01T20:14:45.123Z,8.38
2023-03-01T20:17:18.111Z,9.05
2023-03-01T20:19:51.152Z,8.43
2023-03-01T20:24:56.637Z,6.32
2023-03-01T20:27:29.682Z,8.25
2023-03-01T20:30:04.152Z,7.93
2023-03-01T20:32:36.975Z,8.18
2023-03-01T20:35:10.782Z,8.50
2023-03-01T20:37:43.565Z,7.88
2023-03-01T20:40:16.767Z,8.57
2023-03-01T20:42:49.626Z,8.82
2023-03-01T20:47:56.492Z,8.23
2023-03-01T20:50:29.218Z,7.93
2023-03-01T20:53:01.865Z,8.57
2023-03-01T20:55:34.941Z,9.02
2023-03-01T20:58:08.047Z,8.25
2023-03-01T21:00:42.197Z,8.82
2023-03-01T21:03:15.027Z,9.07
2023-03-01T21:05:48.033Z,8.02
2023-03-01T21:08:20.826Z,8.43
2023-03-01T21:10:56.279Z,9.07
2023-03-01T21:13:29.837Z,8.35
2023-03-01T21:16:07.885Z,8.57
2023-03-01T21:18:41.369Z,9.00
2023-03-01T21:21:16.038Z,8.07
2023-03-01T21:23:49.126Z,9.05
2023-03-01T21:26:23.695Z,8.77
2023-03-01T21:28:57.688Z,9.73
2023-03-01T21:31:34.867Z,8.90
2023-03-01T21:34:08.170Z,8.45
2023-03-01T21:36:41.016Z,9.07
2023-03-01T21:39:15.751Z,8.80
2023-03-01T21:41:50.902Z,9.75
2023-03-01T21:44:23.953Z,10.25
2023-03-01T21:46:59.101Z,9.65
2023-03-01T21:49:32.106Z,9.40
2023-03-01T21:54:37.954Z,10.00
2023-03-01T21:59:43.680Z,6.97
2023-03-01T22:04:57.250Z,10.02
2023-03-01T22:07:31.932Z,10.07
2023-03-01T22:10:05.119Z,9.68
2023-03-01T22:12:38.485Z,10.57
2023-03-01T22:15:11.481Z,11.00
2023-03-01T22:20:18.971Z,11.70
2023-03-01T22:22:52.315Z,11.32
2023-03-01T22:25:26.568Z,10.95
2023-03-01T22:28:00.232Z,12.05
2023-03-01T22:30:33.230Z,11.40
2023-03-01T22:33:07.716Z,11.70
2023-03-01T22:35:42.967Z,12.05
2023-03-01T22:38:15.964Z,11.38
2023-03-01T22:43:30.782Z,11.82
2023-03-01T22:46:11.493Z,11.75
2023-03-01T22:48:46.842Z,11.15
2023-03-01T22:51:22.745Z,11.50
2023-03-01T22:53:56.297Z,12.27
2023-03-01T22:56:31.903Z,12.30
2023-03-01T22:59:09.845Z,12.65
2023-03-01T23:01:46.477Z,11.75
2023-03-01T23:04:22.779Z,11.82
2023-03-01T23:06:55.738Z,11.90
2023-03-01T23:09:31.505Z,10.95
2023-03-01T23:12:07.357Z,12.05
2023-03-01T23:14:41.691Z,10.93
2023-03-01T23:17:14.698Z,12.23
2023-03-01T23:19:51.413Z,11.38
2023-03-01T23:22:24.616Z,11.23
2023-03-01T23:24:57.570Z,11.40
2023-03-01T23:30:03.778Z,11.45
2023-03-01T23:32:40.528Z,10.95
2023-03-01T23:35:15.449Z,11.80
2023-03-01T23:37:48.620Z,11.65
2023-03-01T23:40:21.882Z,11.88
2023-03-01T23:42:54.702Z,11.55
2023-03-01T23:45:27.729Z,11.68
2023-03-01T23:48:00.740Z,12.30
2023-03-01T23:50:41.773Z,11.32
2023-03-01T23:53:17.863Z,11.20
2023-03-01T23:55:53.335Z,12.45
2023-03-01T23:58:28.523Z,12.35
